Time;durP1;ratioP1;P1;durP2;ratioP2;P2;SDS_P1;SDS_P2;PMS_P1;PMS_P2;Temp;Humidity;BMP_temperature;BMP_pressure;BME280_temperature;BME280_humidity;BME280_pressure;Samples;Min_cycle;Max_cycle;Signal;HPM_P1;HPM_P2
2021/12/30 00:02:04;;;;;;;10.82;6.20;;;13.50;93.80;;;;;;4994681;28;20124;-84
2021/12/30 00:04:30;;;;;;;10.07;5.53;;;13.50;94.00;;;;;;5002158;28;20391;-85
2021/12/30 00:06:56;;;;;;;11.25;5.57;;;13.40;93.90;;;;;;4990531;28;20042;-85
2021/12/30 00:09:22;;;;;;;9.77;5.13;;;13.50;94.00;;;;;;5000021;28;20113;-85
2021/12/30 00:11:48;;;;;;;10.80;5.38;;;13.40;94.00;;;;;;4988833;28;20189;-84
2021/12/30 00:14:14;;;;;;;10.40;5.03;;;13.40;94.10;;;;;;4991099;28;20034;-85
2021/12/30 00:16:40;;;;;;;10.18;5.40;;;13.40;94.20;;;;;;4990056;28;20409;-84
2021/12/30 00:19:06;;;;;;;13.27;5.57;;;13.40;94.20;;;;;;4990363;28;20389;-83
2021/12/30 00:21:32;;;;;;;11.35;4.78;;;13.40;94.20;;;;;;4997967;28;20396;-83
2021/12/30 00:23:58;;;;;;;9.50;5.10;;;13.40;94.20;;;;;;4990221;28;20034;-83
2021/12/30 00:26:23;;;;;;;11.48;4.88;;;13.40;94.30;;;;;;4986792;28;20031;-83
2021/12/30 00:28:49;;;;;;;10.85;4.97;;;13.40;94.30;;;;;;4992848;28;20030;-83
2021/12/30 00:31:16;;;;;;;12.35;4.75;;;13.40;94.30;;;;;;4992392;28;20474;-83
2021/12/30 00:33:43;;;;;;;9.18;4.25;;;13.40;94.30;;;;;;4986171;28;20030;-82
2021/12/30 00:36:11;;;;;;;12.55;5.10;;;13.40;94.30;;;;;;4991564;28;20121;-82
2021/12/30 00:38:40;;;;;;;10.32;4.75;;;13.40;94.40;;;;;;4985792;28;20353;-82
2021/12/30 00:41:07;;;;;;;9.60;4.65;;;13.50;94.20;;;;;;4978495;28;20030;-82
2021/12/30 00:43:34;;;;;;;9.63;5.30;;;13.50;94.20;;;;;;4988820;28;20065;-82
2021/12/30 00:46:00;;;;;;;10.95;5.50;;;13.50;94.10;;;;;;4989596;28;20118;-82
2021/12/30 00:48:25;;;;;;;10.73;7.00;;;13.60;94.10;;;;;;4985979;28;20464;-83
2021/12/30 00:50:51;;;;;;;11.68;6.65;;;13.60;94.10;;;;;;4982547;28;20054;-82
2021/12/30 00:53:17;;;;;;;12.88;6.60;;;13.60;94.20;;;;;;4985119;28;20639;-82
2021/12/30 00:55:43;;;;;;;10.18;6.32;;;13.60;94.10;;;;;;4976991;28;20035;-82
2021/12/30 00:58:10;;;;;;;12.32;6.93;;;13.60;94.10;;;;;;4977910;28;20034;-82
2021/12/30 01:00:39;;;;;;;11.68;6.57;;;13.60;94.20;;;;;;4984521;28;20501;-82
2021/12/30 01:03:06;;;;;;;12.57;6.95;;;13.60;94.10;;;;;;4987169;28;20034;-82
2021/12/30 01:05:32;;;;;;;11.88;6.95;;;13.60;94.10;;;;;;4990608;28;20445;-81
2021/12/30 01:07:58;;;;;;;11.48;6.80;;;13.60;94.20;;;;;;4980279;28;20142;-82
2021/12/30 01:10:25;;;;;;;10.52;6.57;;;13.60;94.30;;;;;;4987196;28;20117;-82
2021/12/30 01:12:53;;;;;;;11.02;5.50;;;13.60;94.40;;;;;;4985549;28;20047;-82
2021/12/30 01:15:21;;;;;;;7.30;4.90;;;13.60;94.40;;;;;;4975247;28;20042;-83
2021/12/30 01:20:18;;;;;;;10.13;5.18;;;13.60;94.40;;;;;;4979388;28;20046;-82
2021/12/30 01:22:47;;;;;;;9.00;4.70;;;13.60;94.50;;;;;;4987983;28;20562;-83
2021/12/30 01:25:13;;;;;;;12.13;4.57;;;13.60;94.60;;;;;;4984863;28;20367;-82
2021/12/30 01:27:40;;;;;;;8.77;4.75;;;13.60;94.70;;;;;;4977591;28;20051;-82
2021/12/30 01:30:09;;;;;;;11.13;5.47;;;13.70;94.70;;;;;;4984222;28;20376;-82
2021/12/30 01:32:35;;;;;;;9.07;4.97;;;13.70;94.70;;;;;;4984642;28;20386;-82
2021/12/30 01:35:03;;;;;;;10.00;5.07;;;13.80;94.70;;;;;;4986515;28;20467;-82
2021/12/30 01:37:29;;;;;;;8.48;5.47;;;13.70;94.70;;;;;;4992245;28;20050;-82
2021/12/30 01:39:55;;;;;;;7.78;5.10;;;13.70;94.70;;;;;;4985772;28;20052;-82
2021/12/30 01:42:21;;;;;;;10.35;5.32;;;13.70;94.80;;;;;;4979460;28;20041;-82
2021/12/30 01:44:46;;;;;;;8.60;4.82;;;13.70;94.80;;;;;;4980115;28;20038;-83
2021/12/30 01:47:12;;;;;;;7.60;4.28;;;13.80;94.80;;;;;;4984837;28;20132;-82
2021/12/30 01:49:38;;;;;;;8.25;4.60;;;13.80;94.80;;;;;;4989503;28;20129;-82
2021/12/30 01:52:04;;;;;;;8.32;4.50;;;13.80;94.80;;;;;;4983631;28;20130;-81
2021/12/30 01:54:30;;;;;;;8.88;4.15;;;13.80;94.90;;;;;;4988601;28;20047;-82
2021/12/30 01:57:01;;;;;;;7.97;4.15;;;13.80;94.90;;;;;;4981078;28;20463;-82
2021/12/30 01:59:27;;;;;;;7.72;4.13;;;13.90;94.90;;;;;;4992587;28;20039;-83
2021/12/30 02:01:56;;;;;;;7.38;3.90;;;13.80;94.80;;;;;;4995290;28;20448;-82
2021/12/30 02:04:24;;;;;;;7.88;3.85;;;13.80;94.90;;;;;;4986813;28;20092;-83
2021/12/30 02:06:50;;;;;;;6.00;3.25;;;13.80;95.00;;;;;;4988378;28;20116;-83
2021/12/30 02:09:18;;;;;;;8.20;3.80;;;13.80;95.00;;;;;;4990536;28;20061;-81
2021/12/30 02:11:44;;;;;;;7.10;3.17;;;13.80;95.00;;;;;;4996690;28;20038;-83
2021/12/30 02:14:10;;;;;;;5.55;2.70;;;13.80;94.90;;;;;;5000486;28;20077;-82
2021/12/30 02:16:37;;;;;;;4.85;2.63;;;13.90;94.80;;;;;;5009779;28;20014;-82
2021/12/30 02:19:03;;;;;;;4.85;2.50;;;14.00;94.70;;;;;;5003066;28;20066;-81
2021/12/30 02:21:29;;;;;;;3.88;2.22;;;14.00;94.50;;;;;;4988994;28;20065;-81
2021/12/30 02:23:57;;;;;;;2.58;1.73;;;14.10;94.30;;;;;;4991045;28;20074;-81
2021/12/30 02:26:22;;;;;;;3.95;2.00;;;14.00;94.20;;;;;;4987582;28;20057;-81
2021/12/30 02:28:48;;;;;;;3.50;1.95;;;14.10;94.10;;;;;;4992701;28;20478;-83
2021/12/30 02:31:20;;;;;;;4.18;1.92;;;14.10;94.00;;;;;;4989797;28;20038;-81
2021/12/30 02:33:46;;;;;;;3.75;1.70;;;14.10;93.80;;;;;;4999847;28;20478;-81
2021/12/30 02:36:14;;;;;;;3.03;1.50;;;14.10;93.70;;;;;;4997840;28;20532;-81
2021/12/30 02:38:44;;;;;;;2.95;1.48;;;14.10;93.50;;;;;;4992694;28;20034;-82
2021/12/30 02:41:15;;;;;;;3.78;1.90;;;14.10;93.40;;;;;;4986634;28;20058;-80
2021/12/30 02:43:41;;;;;;;2.67;1.80;;;14.10;93.40;;;;;;4988123;28;20113;-82
2021/12/30 02:46:07;;;;;;;3.13;2.00;;;14.10;93.30;;;;;;4995491;28;20077;-82
2021/12/30 02:48:34;;;;;;;2.47;1.60;;;14.10;93.10;;;;;;5002199;28;20449;-82
2021/12/30 02:51:04;;;;;;;2.25;1.40;;;14.20;93.00;;;;;;4990465;28;20494;-82
2021/12/30 02:53:30;;;;;;;3.10;1.60;;;14.20;92.90;;;;;;4986962;28;20062;-82
2021/12/30 02:55:56;;;;;;;1.95;1.30;;;14.20;92.70;;;;;;4995207;28;20057;-82
2021/12/30 02:58:24;;;;;;;2.47;1.48;;;14.20;92.70;;;;;;4996528;28;20037;-82
2021/12/30 03:01:11;;;;;;;2.28;1.50;;;14.20;92.70;;;;;;4991715;28;20042;-84
2021/12/30 03:03:38;;;;;;;2.28;1.33;;;14.20;92.60;;;;;;4985573;28;20088;-82
2021/12/30 03:06:06;;;;;;;3.13;1.88;;;14.20;92.50;;;;;;4989101;28;20053;-82
2021/12/30 03:08:31;;;;;;;3.72;1.50;;;14.20;92.60;;;;;;4991041;28;20489;-82
2021/12/30 03:10:58;;;;;;;3.83;1.73;;;14.20;92.60;;;;;;5000647;28;20061;-82
2021/12/30 03:13:30;;;;;;;3.65;1.90;;;14.20;92.70;;;;;;4992482;28;20030;-82
2021/12/30 03:16:03;;;;;;;3.20;1.88;;;14.20;92.70;;;;;;4985664;28;20121;-82
2021/12/30 03:18:31;;;;;;;3.78;1.90;;;14.20;92.70;;;;;;4989265;28;20517;-82
2021/12/30 03:20:57;;;;;;;4.22;2.00;;;14.20;92.70;;;;;;4990186;28;20097;-84
2021/12/30 03:23:23;;;;;;;4.30;1.88;;;14.20;92.80;;;;;;4988661;28;20038;-82
2021/12/30 03:25:49;;;;;;;4.38;1.85;;;14.20;92.80;;;;;;4982910;28;20404;-82
2021/12/30 03:28:15;;;;;;;2.72;1.67;;;14.20;92.90;;;;;;4980460;28;20394;-82
2021/12/30 03:30:40;;;;;;;2.95;1.58;;;14.20;93.00;;;;;;4989733;28;20034;-82
2021/12/30 03:33:06;;;;;;;4.70;2.00;;;14.10;93.10;;;;;;4988993;28;20042;-82
2021/12/30 03:35:32;;;;;;;4.10;1.67;;;14.20;93.20;;;;;;4983145;28;20038;-85
2021/12/30 03:37:58;;;;;;;4.43;1.90;;;14.20;93.10;;;;;;4987425;28;20073;-83
2021/12/30 03:40:24;;;;;;;4.10;2.00;;;14.10;93.20;;;;;;4984285;28;20077;-82
2021/12/30 03:42:49;;;;;;;4.28;2.08;;;14.10;93.20;;;;;;4990078;28;20035;-82
2021/12/30 03:45:16;;;;;;;5.50;2.55;;;14.10;93.30;;;;;;4987550;28;20031;-81
2021/12/30 03:47:45;;;;;;;5.47;2.25;;;14.10;93.30;;;;;;4982027;28;20063;-82
2021/12/30 03:50:18;;;;;;;5.03;2.33;;;14.10;93.20;;;;;;4984142;28;20601;-82
2021/12/30 03:52:44;;;;;;;4.03;2.03;;;14.10;93.10;;;;;;4989514;28;20047;-82
2021/12/30 03:55:10;;;;;;;5.10;2.10;;;14.10;93.00;;;;;;4990073;28;20038;-82
2021/12/30 03:57:36;;;;;;;5.95;2.50;;;14.10;92.90;;;;;;4979906;28;20350;-83
2021/12/30 04:00:03;;;;;;;6.30;2.70;;;14.10;92.90;;;;;;4983046;28;20042;-81
2021/12/30 04:02:29;;;;;;;4.15;2.40;;;14.10;93.00;;;;;;4989414;28;20034;-82
2021/12/30 04:04:55;;;;;;;4.07;2.13;;;14.10;93.10;;;;;;4991564;28;20385;-82
2021/12/30 04:07:20;;;;;;;4.82;2.47;;;14.10;93.20;;;;;;4989523;28;21817;-81
2021/12/30 04:09:46;;;;;;;5.00;2.13;;;14.10;93.10;;;;;;4975958;28;20043;-82
2021/12/30 04:12:12;;;;;;;5.35;1.75;;;14.10;93.00;;;;;;4981129;28;20050;-83
2021/12/30 04:14:38;;;;;;;4.97;2.00;;;14.10;92.90;;;;;;4982902;28;20062;-82
2021/12/30 04:17:04;;;;;;;4.88;1.90;;;14.10;92.90;;;;;;4973316;28;20490;-83
2021/12/30 04:19:30;;;;;;;5.32;2.30;;;14.10;93.00;;;;;;4993179;28;20030;-82
2021/12/30 04:21:58;;;;;;;6.63;2.75;;;14.10;93.00;;;;;;4990178;28;20496;-82
2021/12/30 04:24:24;;;;;;;4.78;1.92;;;14.10;93.00;;;;;;4991242;28;20092;-82
2021/12/30 04:26:50;;;;;;;3.92;1.77;;;14.10;93.00;;;;;;4991182;28;20068;-82
2021/12/30 04:29:18;;;;;;;5.38;2.72;;;14.10;92.90;;;;;;4983975;28;20093;-82
2021/12/30 04:31:44;;;;;;;5.25;2.00;;;14.10;92.80;;;;;;4985368;28;20030;-82
2021/12/30 04:34:10;;;;;;;5.10;2.33;;;14.10;92.70;;;;;;4989855;28;20045;-83
2021/12/30 04:36:36;;;;;;;5.25;2.20;;;14.10;92.60;;;;;;4972483;28;20035;-82
2021/12/30 04:39:01;;;;;;;5.25;2.40;;;14.10;92.60;;;;;;4985701;28;20051;-83
2021/12/30 04:41:27;;;;;;;4.05;2.08;;;14.10;92.60;;;;;;4986825;28;20057;-82
2021/12/30 04:43:53;;;;;;;6.18;2.90;;;14.10;92.60;;;;;;4986951;28;20034;-82
2021/12/30 04:46:19;;;;;;;6.47;2.60;;;14.10;92.60;;;;;;4988060;28;20037;-82
2021/12/30 04:48:45;;;;;;;4.45;2.10;;;14.10;92.50;;;;;;4987047;28;20046;-82
2021/12/30 04:51:10;;;;;;;7.40;2.40;;;14.20;92.50;;;;;;4978998;28;20513;-81
2021/12/30 04:53:36;;;;;;;4.55;2.13;;;14.10;92.40;;;;;;4973482;28;20446;-81
2021/12/30 04:56:02;;;;;;;6.25;2.20;;;14.20;92.40;;;;;;4989206;28;20041;-81
2021/12/30 04:58:28;;;;;;;4.28;2.10;;;14.20;92.30;;;;;;4989100;28;20025;-81
2021/12/30 05:00:54;;;;;;;5.50;2.13;;;14.20;92.20;;;;;;4991068;28;20118;-81
2021/12/30 05:03:21;;;;;;;5.13;2.15;;;14.20;92.30;;;;;;5001541;28;20030;-82
2021/12/30 05:05:50;;;;;;;5.95;2.53;;;14.20;92.20;;;;;;4993370;28;20064;-82
2021/12/30 05:08:18;;;;;;;6.15;2.45;;;14.20;92.20;;;;;;4992423;28;20045;-82
2021/12/30 05:10:43;;;;;;;6.43;2.60;;;14.30;92.00;;;;;;4992543;28;20109;-82
2021/12/30 05:13:10;;;;;;;6.65;2.50;;;14.30;91.90;;;;;;4988391;28;20141;-82
2021/12/30 05:15:37;;;;;;;6.10;2.67;;;14.30;91.90;;;;;;4987681;28;20038;-82
2021/12/30 05:18:05;;;;;;;6.13;2.80;;;14.40;91.90;;;;;;4981142;28;20544;-82
2021/12/30 05:20:30;;;;;;;5.70;2.67;;;14.30;92.10;;;;;;4992899;28;20036;-82
2021/12/30 05:22:56;;;;;;;6.32;2.67;;;14.30;92.00;;;;;;4998923;28;20038;-82
2021/12/30 05:25:22;;;;;;;6.47;2.83;;;14.30;92.10;;;;;;4989246;28;20034;-83
2021/12/30 05:27:49;;;;;;;7.07;2.50;;;14.30;92.30;;;;;;4996623;28;20047;-82
2021/12/30 05:30:16;;;;;;;6.75;2.53;;;14.30;92.30;;;;;;4990871;28;20096;-84
2021/12/30 05:32:42;;;;;;;4.80;2.53;;;14.30;92.30;;;;;;4990140;28;20477;-82
2021/12/30 05:35:09;;;;;;;5.85;2.67;;;14.30;92.30;;;;;;4994591;28;20053;-82
2021/12/30 05:37:35;;;;;;;9.60;2.88;;;14.20;92.40;;;;;;4997069;28;20441;-81
2021/12/30 05:40:03;;;;;;;5.80;2.80;;;14.20;92.50;;;;;;5001052;28;20104;-81
2021/12/30 05:42:28;;;;;;;6.22;2.88;;;14.20;92.60;;;;;;4987414;28;20512;-82
2021/12/30 05:44:55;;;;;;;7.72;3.15;;;14.20;92.60;;;;;;4999967;28;20130;-82
2021/12/30 05:47:21;;;;;;;6.10;2.33;;;14.20;92.70;;;;;;4990295;28;20038;-82
2021/12/30 05:49:48;;;;;;;6.38;2.97;;;14.20;92.60;;;;;;5005860;28;20121;-82
2021/12/30 05:52:14;;;;;;;5.72;2.20;;;14.30;92.50;;;;;;5001484;28;20046;-81
2021/12/30 05:54:41;;;;;;;5.88;2.38;;;14.30;92.40;;;;;;4989731;28;20117;-81
2021/12/30 05:57:07;;;;;;;8.00;2.67;;;14.30;92.40;;;;;;4991424;28;20120;-81
2021/12/30 05:59:33;;;;;;;5.03;2.22;;;14.30;92.30;;;;;;4993465;28;20030;-84
2021/12/30 06:01:58;;;;;;;5.93;2.50;;;14.30;92.40;;;;;;4991119;28;20041;-81
2021/12/30 06:04:25;;;;;;;7.55;2.70;;;14.30;92.40;;;;;;4988096;28;20422;-81
2021/12/30 06:06:51;;;;;;;5.70;2.72;;;14.30;92.40;;;;;;4995591;28;20045;-82
2021/12/30 06:09:16;;;;;;;6.93;2.85;;;14.40;92.40;;;;;;4998796;28;20042;-82
2021/12/30 06:11:42;;;;;;;6.53;2.72;;;14.30;92.40;;;;;;4992710;28;20045;-81
2021/12/30 06:14:08;;;;;;;5.97;2.40;;;14.30;92.40;;;;;;5003106;28;20034;-81
2021/12/30 06:16:33;;;;;;;6.88;2.90;;;14.30;92.60;;;;;;4995610;28;20094;-79
2021/12/30 06:18:59;;;;;;;5.93;2.33;;;14.30;92.80;;;;;;5011762;28;20065;-82
2021/12/30 06:21:25;;;;;;;7.55;2.72;;;14.30;92.80;;;;;;5004622;28;20038;-81
2021/12/30 06:23:52;;;;;;;6.07;2.30;;;14.20;92.80;;;;;;5004130;28;20106;-81
2021/12/30 06:26:17;;;;;;;7.70;3.00;;;14.30;92.90;;;;;;4988479;28;20043;-82
2021/12/30 06:28:43;;;;;;;7.93;2.70;;;14.30;92.80;;;;;;4998085;28;20046;-81
2021/12/30 06:31:09;;;;;;;6.05;2.40;;;14.20;92.90;;;;;;4985084;28;20702;-82
2021/12/30 06:33:35;;;;;;;7.40;2.65;;;14.20;93.00;;;;;;4996757;28;20401;-81
2021/12/30 06:36:00;;;;;;;7.47;2.72;;;14.20;93.20;;;;;;4988731;28;20057;-82
2021/12/30 06:38:26;;;;;;;5.78;2.50;;;14.20;93.30;;;;;;4987782;28;20397;-81
2021/12/30 06:40:52;;;;;;;6.25;2.70;;;14.20;93.30;;;;;;4997395;28;20466;-82
2021/12/30 06:43:18;;;;;;;8.10;3.00;;;14.20;93.20;;;;;;5001483;28;20043;-81
2021/12/30 06:45:44;;;;;;;9.25;4.07;;;14.20;93.30;;;;;;4995535;28;20049;-82
2021/12/30 06:48:14;;;;;;;13.95;3.97;;;14.20;93.20;;;;;;5000375;28;20054;-82
2021/12/30 06:50:40;;;;;;;13.32;3.80;;;14.20;93.20;;;;;;4998368;28;20100;-81
2021/12/30 06:53:05;;;;;;;12.82;4.20;;;14.20;93.20;;;;;;4990446;28;20490;-82
2021/12/30 06:55:31;;;;;;;11.85;3.95;;;14.10;93.10;;;;;;4995866;28;20033;-81
2021/12/30 06:57:57;;;;;;;11.18;3.95;;;14.20;92.90;;;;;;4994496;28;20440;-82
2021/12/30 07:00:23;;;;;;;12.38;4.18;;;14.20;92.90;;;;;;4992156;28;20045;-81
2021/12/30 07:02:49;;;;;;;13.90;4.60;;;14.10;92.90;;;;;;4992813;28;20043;-83
2021/12/30 07:05:14;;;;;;;13.98;4.90;;;14.10;92.80;;;;;;4998394;28;20042;-82
2021/12/30 07:07:41;;;;;;;16.77;5.00;;;14.20;92.80;;;;;;4997605;28;20077;-81
2021/12/30 07:10:07;;;;;;;16.52;5.32;;;14.20;92.50;;;;;;5005181;28;20026;-82
2021/12/30 07:12:33;;;;;;;18.90;4.70;;;14.20;92.30;;;;;;4991146;28;20038;-81
2021/12/30 07:14:58;;;;;;;20.10;5.93;;;14.20;92.00;;;;;;4995561;28;20077;-82
2021/12/30 07:17:26;;;;;;;12.05;5.15;;;14.30;91.80;;;;;;4998091;28;20052;-82
2021/12/30 07:19:52;;;;;;;17.08;4.80;;;14.30;91.70;;;;;;4998939;28;20026;-82
2021/12/30 07:22:18;;;;;;;19.00;5.07;;;14.30;91.40;;;;;;4996917;28;20035;-83
2021/12/30 07:24:43;;;;;;;18.88;4.97;;;14.40;91.30;;;;;;4996022;28;20538;-83
2021/12/30 07:27:09;;;;;;;16.20;4.15;;;14.30;91.10;;;;;;5002652;28;20038;-82
2021/12/30 07:29:34;;;;;;;17.23;4.43;;;14.30;91.00;;;;;;4992224;28;20023;-82
2021/12/30 07:32:00;;;;;;;17.27;4.03;;;14.40;91.00;;;;;;4991221;28;20089;-82
2021/12/30 07:34:26;;;;;;;15.60;4.05;;;14.40;90.80;;;;;;4987830;28;20058;-82
2021/12/30 07:36:51;;;;;;;13.98;4.05;;;14.40;90.70;;;;;;4990123;28;20034;-81
2021/12/30 07:39:17;;;;;;;15.00;4.20;;;14.40;90.60;;;;;;4990100;28;20565;-81
2021/12/30 07:41:42;;;;;;;15.75;4.30;;;14.40;90.60;;;;;;4989875;28;20038;-81
2021/12/30 07:44:09;;;;;;;17.50;4.20;;;14.40;90.40;;;;;;4988916;28;20045;-81
2021/12/30 07:46:35;;;;;;;18.83;4.82;;;14.40;90.30;;;;;;4984958;28;20065;-81
2021/12/30 07:49:00;;;;;;;15.13;4.25;;;14.40;90.20;;;;;;4990248;28;20489;-81
2021/12/30 07:51:28;;;;;;;19.05;4.90;;;14.50;90.00;;;;;;4988857;28;20807;-81
2021/12/30 07:53:53;;;;;;;18.83;5.10;;;14.50;89.90;;;;;;4989889;28;20113;-81
2021/12/30 07:56:19;;;;;;;21.00;5.68;;;14.40;89.90;;;;;;4991182;28;20129;-80
2021/12/30 07:58:45;;;;;;;14.70;4.45;;;14.40;89.80;;;;;;4987408;28;20037;-80
2021/12/30 08:01:11;;;;;;;19.70;6.22;;;14.50;89.70;;;;;;4988843;28;20034;-82
2021/12/30 08:03:36;;;;;;;17.33;5.20;;;14.50;89.60;;;;;;4991719;28;20085;-82
2021/12/30 08:06:02;;;;;;;23.65;5.82;;;14.50;89.40;;;;;;4988214;28;20041;-81
2021/12/30 08:08:28;;;;;;;17.33;4.57;;;14.50;89.30;;;;;;4989173;28;20815;-81
2021/12/30 08:10:54;;;;;;;15.70;5.20;;;14.50;89.30;;;;;;4988553;28;20470;-82
2021/12/30 08:13:20;;;;;;;16.67;5.32;;;14.50;89.10;;;;;;4989590;28;20034;-82
2021/12/30 08:15:46;;;;;;;17.13;5.05;;;14.50;88.90;;;;;;4987356;28;20064;-82
2021/12/30 08:18:13;;;;;;;22.10;5.68;;;14.50;88.90;;;;;;4988367;28;20041;-82
2021/12/30 08:20:38;;;;;;;16.98;5.90;;;14.50;88.60;;;;;;4987566;28;20045;-82
2021/12/30 08:23:05;;;;;;;21.65;5.70;;;14.60;88.40;;;;;;4988695;28;20484;-81
2021/12/30 08:25:31;;;;;;;19.00;5.28;;;14.60;88.10;;;;;;4988441;28;20066;-82
2021/12/30 08:27:56;;;;;;;22.85;6.18;;;14.60;88.20;;;;;;4988929;28;20157;-82
2021/12/30 08:30:23;;;;;;;23.27;6.10;;;14.60;88.20;;;;;;4986836;28;20458;-81
2021/12/30 08:32:50;;;;;;;17.52;5.85;;;14.60;88.10;;;;;;4989935;28;20045;-82
2021/12/30 08:35:17;;;;;;;24.27;7.22;;;14.60;88.00;;;;;;4990550;28;20038;-81
2021/12/30 08:37:43;;;;;;;21.58;6.07;;;14.60;87.80;;;;;;4993889;28;20099;-81
2021/12/30 08:40:12;;;;;;;20.15;6.18;;;14.60;87.90;;;;;;4986825;28;20053;-82
2021/12/30 08:42:38;;;;;;;19.10;5.10;;;14.60;87.80;;;;;;4987771;28;20090;-81
2021/12/30 08:45:05;;;;;;;19.15;5.07;;;14.60;87.80;;;;;;4989960;28;20034;-82
2021/12/30 08:47:31;;;;;;;20.15;4.63;;;14.60;87.90;;;;;;4988190;28;20066;-82
2021/12/30 08:49:58;;;;;;;21.63;5.28;;;14.60;88.00;;;;;;4984513;28;20545;-82
2021/12/30 08:52:25;;;;;;;17.92;4.85;;;14.70;87.80;;;;;;4986531;28;20042;-83
2021/12/30 08:54:52;;;;;;;18.83;5.45;;;14.70;87.60;;;;;;4988775;28;20035;-82
2021/12/30 08:57:20;;;;;;;18.10;4.40;;;14.70;87.50;;;;;;4988627;28;20517;-82
2021/12/30 08:59:46;;;;;;;18.98;4.95;;;14.70;87.50;;;;;;4992076;28;20038;-82
2021/12/30 09:02:13;;;;;;;22.13;5.07;;;14.70;87.50;;;;;;4992984;28;20045;-81
2021/12/30 09:04:42;;;;;;;14.40;4.13;;;14.70;87.50;;;;;;4988478;28;20045;-81
2021/12/30 09:07:08;;;;;;;19.23;4.93;;;14.70;87.40;;;;;;4986943;28;20497;-81
2021/12/30 09:09:34;;;;;;;18.50;4.88;;;14.70;87.60;;;;;;4995098;28;20044;-82
2021/12/30 09:12:00;;;;;;;18.92;5.50;;;14.70;87.50;;;;;;4993395;28;20034;-82
2021/12/30 09:14:25;;;;;;;15.80;4.88;;;14.70;87.50;;;;;;4991297;28;20050;-82
2021/12/30 09:16:51;;;;;;;14.40;4.38;;;14.70;87.50;;;;;;4989629;28;20038;-81
2021/12/30 09:19:18;;;;;;;19.05;4.63;;;14.80;87.30;;;;;;4987620;28;20466;-81
2021/12/30 09:21:44;;;;;;;14.00;4.93;;;14.70;87.30;;;;;;4989621;28;20481;-81
2021/12/30 09:24:10;;;;;;;13.55;4.60;;;14.70;87.50;;;;;;4989099;28;20028;-81
2021/12/30 09:26:37;;;;;;;16.83;4.18;;;14.60;87.60;;;;;;4986668;28;20121;-82
2021/12/30 09:29:10;;;;;;;18.48;4.57;;;14.70;87.40;;;;;;4988926;28;20058;-75
2021/12/30 09:31:44;;;;;;;20.27;5.40;;;14.70;87.50;;;;;;4990229;28;20034;-75
2021/12/30 09:34:10;;;;;;;17.65;4.82;;;14.70;87.40;;;;;;4992977;28;20041;-75
2021/12/30 09:36:37;;;;;;;16.30;4.32;;;14.70;87.40;;;;;;4987392;28;20081;-76
2021/12/30 09:39:10;;;;;;;14.60;4.20;;;14.70;87.60;;;;;;4988348;28;20039;-77
2021/12/30 09:41:37;;;;;;;14.52;4.40;;;14.80;87.70;;;;;;4987923;28;20030;-75
2021/12/30 09:44:04;;;;;;;13.68;4.30;;;14.80;87.50;;;;;;4992144;28;20048;-76
2021/12/30 09:46:30;;;;;;;12.40;4.55;;;14.80;87.20;;;;;;4990264;28;20027;-76
2021/12/30 09:48:56;;;;;;;12.82;3.97;;;14.80;87.60;;;;;;4987136;28;20045;-75
2021/12/30 09:51:22;;;;;;;16.25;5.10;;;14.80;87.70;;;;;;4987303;28;20046;-76
2021/12/30 09:53:53;;;;;;;11.90;4.88;;;14.90;87.60;;;;;;4988852;28;20084;-76
2021/12/30 09:56:19;;;;;;;14.45;4.80;;;14.80;87.60;;;;;;4988295;28;20057;-75
2021/12/30 09:58:46;;;;;;;12.63;4.80;;;14.90;87.60;;;;;;4987178;28;20133;-75
2021/12/30 10:01:12;;;;;;;16.30;4.90;;;14.90;87.60;;;;;;4988647;28;20148;-75
2021/12/30 10:03:37;;;;;;;18.83;5.32;;;15.00;87.40;;;;;;4989010;28;20122;-74
2021/12/30 10:06:13;;;;;;;14.75;4.35;;;15.00;87.20;;;;;;4985851;28;20038;-75
2021/12/30 10:08:51;;;;;;;17.20;4.75;;;15.10;87.00;;;;;;4998801;28;20501;-75
2021/12/30 10:11:17;;;;;;;13.68;4.05;;;15.10;87.10;;;;;;4986957;28;20154;-74
2021/12/30 10:14:00;;;;;;;14.60;4.60;;;15.00;87.10;;;;;;4988399;28;20947;-75
2021/12/30 10:16:26;;;;;;;13.23;4.25;;;15.00;87.40;;;;;;4995114;28;20037;-75
2021/12/30 10:18:52;;;;;;;12.93;4.28;;;15.00;87.30;;;;;;4990013;28;20045;-74
2021/12/30 10:21:40;;;;;;;14.13;4.50;;;15.10;87.40;;;;;;4985476;28;20370;-74
2021/12/30 10:24:08;;;;;;;14.23;4.10;;;15.10;87.50;;;;;;4986945;28;20517;-74
2021/12/30 10:26:48;;;;;;;17.85;4.82;;;15.10;87.40;;;;;;4996684;28;20037;-75
2021/12/30 10:29:13;;;;;;;15.50;4.40;;;15.20;87.30;;;;;;4992511;28;20064;-74
2021/12/30 10:31:42;;;;;;;13.43;3.53;;;15.20;87.20;;;;;;4987912;28;20541;-74
2021/12/30 10:34:10;;;;;;;13.95;4.28;;;15.20;87.20;;;;;;4988856;28;20511;-75
2021/12/30 10:36:39;;;;;;;12.05;4.30;;;15.20;87.10;;;;;;4989716;28;20033;-74
2021/12/30 10:39:24;;;;;;;13.90;4.55;;;15.10;87.30;;;;;;4989928;28;20054;-76
2021/12/30 10:42:15;;;;;;;12.27;4.22;;;15.10;87.60;;;;;;4987205;28;20077;-75
2021/12/30 10:44:51;;;;;;;13.05;4.57;;;15.00;87.80;;;;;;4991506;28;20145;-75
2021/12/30 10:47:25;;;;;;;13.68;4.38;;;14.90;88.40;;;;;;4983500;28;20490;-75
2021/12/30 10:50:08;;;;;;;15.02;4.57;;;15.00;88.50;;;;;;4985824;28;20062;-75
2021/12/30 10:52:44;;;;;;;16.30;4.78;;;15.00;88.20;;;;;;4987587;28;20118;-74
2021/12/30 10:55:12;;;;;;;14.57;4.82;;;15.00;88.20;;;;;;4986813;28;20406;-74
2021/12/30 10:57:38;;;;;;;14.63;4.80;;;15.00;88.40;;;;;;4987906;28;20496;-74
2021/12/30 11:00:06;;;;;;;12.40;5.20;;;15.00;88.50;;;;;;4985207;28;20035;-75
2021/12/30 11:02:33;;;;;;;13.85;4.28;;;15.10;88.40;;;;;;4985767;28;20065;-74
2021/12/30 11:05:03;;;;;;;14.07;4.38;;;15.00;88.40;;;;;;4984760;28;20050;-73
2021/12/30 11:07:46;;;;;;;12.13;4.65;;;15.00;88.40;;;;;;4985559;28;20034;-74
2021/12/30 11:10:14;;;;;;;12.98;4.90;;;15.00;88.60;;;;;;4987527;28;20038;-74
2021/12/30 11:12:42;;;;;;;11.02;4.50;;;15.10;88.60;;;;;;4987492;28;20066;-74
2021/12/30 11:15:27;;;;;;;14.77;4.60;;;15.10;88.40;;;;;;4987536;28;20030;-74
2021/12/30 11:18:15;;;;;;;13.70;4.43;;;15.10;88.30;;;;;;4989080;28;20114;-74
2021/12/30 11:20:45;;;;;;;12.23;4.35;;;15.10;88.30;;;;;;4985589;28;20031;-73
2021/12/30 11:23:13;;;;;;;10.55;3.85;;;15.10;88.30;;;;;;4996591;28;20050;-73
2021/12/30 11:25:38;;;;;;;14.00;4.20;;;15.10;88.40;;;;;;4989390;28;20034;-74
2021/12/30 11:28:04;;;;;;;14.77;5.03;;;15.10;88.50;;;;;;4990321;28;20092;-73
2021/12/30 11:30:30;;;;;;;11.63;4.53;;;15.10;88.40;;;;;;4983775;28;20482;-74
2021/12/30 11:32:56;;;;;;;12.27;4.18;;;15.20;88.40;;;;;;4988345;28;20034;-74
2021/12/30 11:35:24;;;;;;;13.43;4.63;;;15.30;88.10;;;;;;4988450;28;20379;-75
2021/12/30 11:37:50;;;;;;;15.05;3.95;;;15.30;87.70;;;;;;4985388;28;20053;-76
2021/12/30 11:40:21;;;;;;;12.90;4.22;;;15.30;87.60;;;;;;4992906;28;20030;-75
2021/12/30 11:42:57;;;;;;;14.20;4.50;;;15.40;87.50;;;;;;4987187;28;20048;-76
2021/12/30 11:45:27;;;;;;;12.02;3.95;;;15.50;87.50;;;;;;4991214;28;20576;-75
2021/12/30 11:47:55;;;;;;;13.30;4.38;;;15.50;87.50;;;;;;4987370;28;20039;-76
2021/12/30 11:50:26;;;;;;;12.70;4.35;;;15.50;87.40;;;;;;4999354;28;20058;-76
2021/12/30 11:52:59;;;;;;;12.63;4.10;;;15.50;87.70;;;;;;4991575;28;20042;-75
2021/12/30 11:56:03;;;;;;;14.35;4.50;;;15.50;87.60;;;;;;4992249;28;20365;-75
2021/12/30 11:58:32;;;;;;;15.65;4.50;;;15.40;87.60;;;;;;5008563;28;20046;-76
2021/12/30 12:01:19;;;;;;;14.80;4.90;;;15.40;87.80;;;;;;5015571;28;20045;-76
2021/12/30 12:03:54;;;;;;;13.32;4.45;;;15.40;87.80;;;;;;5023729;28;20037;-76
2021/12/30 12:06:26;;;;;;;15.15;4.13;;;15.30;87.80;;;;;;5013017;28;20049;-76
2021/12/30 12:08:54;;;;;;;15.63;4.18;;;15.30;88.10;;;;;;5011277;28;20045;-75
2021/12/30 12:11:25;;;;;;;15.70;4.40;;;15.20;88.20;;;;;;5015972;28;20030;-76
2021/12/30 12:13:53;;;;;;;17.42;3.78;;;15.20;88.30;;;;;;5007461;28;20072;-76
2021/12/30 12:16:44;;;;;;;16.92;3.88;;;15.20;88.40;;;;;;5014498;28;20111;-74
2021/12/30 12:19:11;;;;;;;14.85;4.05;;;15.20;88.60;;;;;;5008252;28;20058;-75
2021/12/30 12:22:01;;;;;;;12.88;3.72;;;15.20;88.80;;;;;;5016271;28;20095;-75
2021/12/30 12:24:31;;;;;;;12.23;4.15;;;15.30;88.70;;;;;;5017373;28;20707;-75
2021/12/30 12:27:00;;;;;;;14.73;3.70;;;15.20;88.70;;;;;;5018342;28;20044;-74
2021/12/30 12:29:48;;;;;;;12.10;3.38;;;15.30;88.60;;;;;;5022522;28;20427;-75
2021/12/30 12:32:36;;;;;;;10.95;3.42;;;15.20;88.70;;;;;;5013814;28;20056;-74
2021/12/30 12:35:23;;;;;;;11.38;3.35;;;15.30;88.70;;;;;;5011439;28;20049;-75
2021/12/30 12:37:56;;;;;;;10.57;2.88;;;15.20;88.70;;;;;;5010092;28;20088;-73
2021/12/30 12:40:28;;;;;;;12.52;3.20;;;15.10;88.90;;;;;;5007137;28;20052;-75
2021/12/30 12:42:57;;;;;;;15.45;5.28;;;15.20;89.00;;;;;;5004943;28;20065;-76
2021/12/30 12:45:28;;;;;;;10.77;4.68;;;15.20;88.90;;;;;;5008444;28;20049;-76
2021/12/30 12:48:20;;;;;;;11.38;3.70;;;15.20;89.00;;;;;;5004578;28;20073;-75